createdAt,value
2018-01-12T00:00:26.167Z,6.60
2018-01-12T00:03:01.070Z,6.60
2018-01-12T00:08:15.574Z,6.60
2018-01-12T00:10:49.583Z,6.60
2018-01-12T00:13:23.809Z,6.60
2018-01-12T00:15:57.776Z,6.60
2018-01-12T00:18:31.930Z,6.60
2018-01-12T00:21:05.860Z,6.60
2018-01-12T00:23:39.727Z,6.60
2018-01-12T00:26:14.441Z,6.70
2018-01-12T00:28:49.493Z,6.70
2018-01-12T00:31:24.836Z,6.60
2018-01-12T00:33:59.974Z,6.60
2018-01-12T00:36:33.921Z,6.60
2018-01-12T00:39:08.513Z,6.60
2018-01-12T00:41:42.530Z,6.60
2018-01-12T00:44:16.568Z,6.60
2018-01-12T00:46:51.409Z,6.70
2018-01-12T00:49:25.041Z,6.70
2018-01-12T00:51:58.884Z,6.60
2018-01-12T00:54:32.697Z,6.60
2018-01-12T00:57:07.179Z,6.60
2018-01-12T00:59:41.439Z,6.60
2018-01-12T01:02:15.366Z,6.60
2018-01-12T01:04:49.644Z,6.60
2018-01-12T01:07:24.330Z,6.60
2018-01-12T01:09:58.096Z,6.60
2018-01-12T01:12:34.031Z,6.60
2018-01-12T01:15:08.673Z,6.60
2018-01-12T01:17:43.662Z,6.70
2018-01-12T01:20:19.625Z,6.60
2018-01-12T01:25:29.025Z,6.60
2018-01-12T01:28:02.876Z,6.60
2018-01-12T01:30:37.218Z,6.60
2018-01-12T01:33:11.195Z,6.60
2018-01-12T01:35:45.243Z,6.60
2018-01-12T01:38:19.376Z,6.60
2018-01-12T01:40:54.493Z,6.60
2018-01-12T01:43:28.422Z,6.70
2018-01-12T01:46:02.604Z,6.60
2018-01-12T01:48:42.289Z,6.70
2018-01-12T01:51:18.380Z,6.70
2018-01-12T01:53:53.171Z,6.70
2018-01-12T01:56:27.453Z,6.70
2018-01-12T01:59:01.480Z,6.70
2018-01-12T02:01:35.867Z,6.70
2018-01-12T02:04:10.302Z,6.70
2018-01-12T02:06:44.317Z,6.70
2018-01-12T02:09:19.346Z,6.70
2018-01-12T02:11:53.871Z,6.70
2018-01-12T02:14:29.614Z,6.80
2018-01-12T02:17:04.234Z,6.70
2018-01-12T02:19:39.410Z,6.70
2018-01-12T02:22:13.076Z,6.70
2018-01-12T02:24:47.450Z,6.70
2018-01-12T02:27:22.067Z,6.70
2018-01-12T02:29:56.320Z,6.60
2018-01-12T02:32:30.547Z,6.70
2018-01-12T02:35:05.162Z,6.60
2018-01-12T02:37:39.617Z,6.60
2018-01-12T02:40:13.463Z,6.60
2018-01-12T02:42:47.247Z,6.60
2018-01-12T02:45:21.276Z,6.60
2018-01-12T02:47:56.458Z,6.60
2018-01-12T02:50:30.729Z,6.70
2018-01-12T02:53:04.760Z,6.70
2018-01-12T02:55:39.040Z,6.70
2018-01-12T02:58:13.452Z,6.70
2018-01-12T03:00:47.765Z,6.70
2018-01-12T03:03:21.738Z,6.70
2018-01-12T03:05:55.980Z,6.70
2018-01-12T03:08:30.184Z,6.70
2018-01-12T03:11:04.286Z,6.70
2018-01-12T03:13:38.282Z,6.70
2018-01-12T03:16:11.977Z,6.70
2018-01-12T03:18:46.391Z,6.60
2018-01-12T03:21:21.066Z,6.60
2018-01-12T03:23:56.081Z,6.60
2018-01-12T03:26:30.444Z,6.60
2018-01-12T03:29:04.137Z,6.70
2018-01-12T03:31:38.420Z,6.70
2018-01-12T03:34:12.612Z,6.60
2018-01-12T03:36:46.486Z,6.70
2018-01-12T03:39:20.479Z,6.70
2018-01-12T03:41:54.405Z,6.70
2018-01-12T03:44:28.509Z,6.70
2018-01-12T03:47:03.013Z,6.70
2018-01-12T03:49:37.333Z,6.60
2018-01-12T03:52:11.284Z,6.60
2018-01-12T03:54:45.958Z,6.60
2018-01-12T03:57:20.801Z,6.50
2018-01-12T03:59:55.318Z,6.50
2018-01-12T04:02:29.900Z,6.60
2018-01-12T04:05:04.052Z,6.60
2018-01-12T04:07:38.195Z,6.60
2018-01-12T04:10:12.148Z,6.60
2018-01-12T04:12:46.046Z,6.60
2018-01-12T04:15:21.532Z,6.60
2018-01-12T04:17:56.636Z,6.60
2018-01-12T04:20:30.371Z,6.60
2018-01-12T04:23:04.173Z,6.50
2018-01-12T04:25:37.875Z,6.50
2018-01-12T04:28:11.489Z,6.50
2018-01-12T04:30:45.600Z,6.50
2018-01-12T04:33:19.986Z,6.40
2018-01-12T04:35:57.015Z,6.40
2018-01-12T04:38:31.331Z,6.50
2018-01-12T04:41:05.002Z,6.40
2018-01-12T04:43:39.827Z,6.40
2018-01-12T04:46:14.251Z,6.50
2018-01-12T04:48:48.302Z,6.50
2018-01-12T04:51:22.992Z,6.50
2018-01-12T04:53:57.302Z,6.50
2018-01-12T04:56:32.626Z,6.40
2018-01-12T04:59:07.789Z,6.40
2018-01-12T05:01:41.497Z,6.40
2018-01-12T05:04:16.246Z,6.40
2018-01-12T05:06:49.969Z,6.40
2018-01-12T05:09:24.179Z,6.40
2018-01-12T05:11:58.515Z,6.40
2018-01-12T05:14:32.909Z,6.50
2018-01-12T05:17:07.042Z,6.40
2018-01-12T05:19:41.786Z,6.40
2018-01-12T05:24:52.264Z,6.30
2018-01-12T05:27:26.814Z,6.30
2018-01-12T05:30:01.325Z,6.40
2018-01-12T05:32:35.503Z,6.30
2018-01-12T05:35:10.393Z,6.40
2018-01-12T05:37:44.225Z,6.40
2018-01-12T05:40:18.183Z,6.30
2018-01-12T05:42:52.429Z,6.30
2018-01-12T05:45:26.676Z,6.40
2018-01-12T05:48:00.687Z,7.60
2018-01-12T05:50:35.069Z,6.40
2018-01-12T05:53:08.811Z,6.40
2018-01-12T05:55:43.910Z,6.40
2018-01-12T05:58:18.852Z,6.40
2018-01-12T06:01:04.732Z,6.40
2018-01-12T06:03:51.981Z,6.40
2018-01-12T06:06:25.853Z,6.30
2018-01-12T06:09:00.408Z,6.30
2018-01-12T06:11:34.918Z,6.20
2018-01-12T06:14:09.895Z,6.20
2018-01-12T06:16:43.641Z,6.10
2018-01-12T06:19:17.691Z,6.10
2018-01-12T06:21:52.333Z,6.10
2018-01-12T06:24:26.298Z,6.00
2018-01-12T06:27:01.054Z,6.10
2018-01-12T06:29:34.936Z,6.10
2018-01-12T06:32:08.780Z,6.10
2018-01-12T06:34:42.780Z,6.20
2018-01-12T06:37:17.930Z,6.10
2018-01-12T06:39:52.552Z,6.10
2018-01-12T06:42:27.692Z,6.20
2018-01-12T06:45:01.652Z,6.20
2018-01-12T06:47:35.681Z,6.30
2018-01-12T06:50:10.440Z,6.30
2018-01-12T06:52:44.746Z,6.30
2018-01-12T06:55:19.202Z,6.30
2018-01-12T06:57:53.963Z,6.30
2018-01-12T07:00:28.459Z,6.30
2018-01-12T07:03:03.691Z,6.40
2018-01-12T07:08:13.343Z,6.40
2018-01-12T07:13:22.877Z,6.30
2018-01-12T07:15:57.175Z,6.30
2018-01-12T07:18:32.748Z,6.30
2018-01-12T07:21:19.696Z,6.20
2018-01-12T07:23:53.502Z,6.10
2018-01-12T07:26:27.372Z,6.10
2018-01-12T07:29:01.384Z,6.10
2018-01-12T07:31:35.306Z,6.10
2018-01-12T07:34:09.645Z,6.20
2018-01-12T07:36:45.026Z,6.20
2018-01-12T07:39:20.295Z,6.20
2018-01-12T07:41:54.313Z,6.20
2018-01-12T07:44:29.237Z,6.30
2018-01-12T07:47:03.157Z,6.30
2018-01-12T07:49:37.781Z,6.30
2018-01-12T07:52:12.040Z,6.20
2018-01-12T07:54:45.964Z,6.20
2018-01-12T07:57:20.768Z,6.10
2018-01-12T07:59:55.143Z,6.10
2018-01-12T08:02:35.721Z,6.10
2018-01-12T08:05:09.326Z,6.10
2018-01-12T08:10:18.918Z,6.00
2018-01-12T08:12:54.574Z,6.00
2018-01-12T08:15:29.761Z,5.90
2018-01-12T08:18:03.717Z,5.80
2018-01-12T08:20:38.549Z,5.80
2018-01-12T08:23:12.941Z,5.60
2018-01-12T08:25:46.727Z,5.50
2018-01-12T08:28:20.640Z,5.50
2018-01-12T08:30:54.486Z,5.50
2018-01-12T08:33:28.460Z,5.50
2018-01-12T08:36:02.928Z,5.50
2018-01-12T08:38:37.474Z,5.50
2018-01-12T08:41:12.616Z,5.40
2018-01-12T08:43:46.557Z,5.40
2018-01-12T08:46:21.078Z,5.40
2018-01-12T08:48:56.317Z,5.40
2018-01-12T08:51:31.043Z,5.40
2018-01-12T08:54:07.191Z,5.40
2018-01-12T08:56:40.886Z,5.30
2018-01-12T08:59:15.984Z,5.30
2018-01-12T09:01:50.359Z,5.20
2018-01-12T09:06:59.995Z,5.10
2018-01-12T09:09:35.057Z,5.10
2018-01-12T09:12:10.311Z,5.10
2018-01-12T09:14:52.884Z,5.00
2018-01-12T09:17:37.277Z,5.00
2018-01-12T09:20:18.112Z,5.00
2018-01-12T09:22:51.956Z,5.10
2018-01-12T09:25:26.466Z,5.10
2018-01-12T09:28:00.909Z,5.20
2018-01-12T09:30:34.791Z,5.20
2018-01-12T09:33:09.803Z,5.30
2018-01-12T09:35:44.397Z,5.40
2018-01-12T09:38:22.055Z,5.40
2018-01-12T09:40:56.949Z,5.50
2018-01-12T09:43:32.387Z,5.50
2018-01-12T09:46:06.535Z,5.60
2018-01-12T09:48:40.275Z,5.60
2018-01-12T09:51:15.734Z,5.70
2018-01-12T09:53:50.072Z,5.70
2018-01-12T09:56:24.166Z,5.70
2018-01-12T09:59:04.045Z,5.80
2018-01-12T10:01:41.321Z,5.70
2018-01-12T10:04:15.455Z,5.70
2018-01-12T10:06:50.084Z,5.70
2018-01-12T10:09:32.073Z,5.70
2018-01-12T10:12:06.349Z,5.70
2018-01-12T10:14:40.262Z,5.70
2018-01-12T10:17:14.214Z,5.60
2018-01-12T10:23:02.563Z,5.80
2018-01-12T10:25:36.998Z,5.80
2018-01-12T10:28:12.233Z,5.90
2018-01-12T10:31:03.753Z,5.90
2018-01-12T10:36:39.499Z,5.80
2018-01-12T10:39:22.093Z,5.80
2018-01-12T10:42:05.907Z,5.80
2018-01-12T10:44:40.305Z,5.90
2018-01-12T10:47:24.682Z,5.90
2018-01-12T10:50:18.427Z,6.00
2018-01-12T10:52:54.400Z,6.00
2018-01-12T10:55:28.683Z,6.10
2018-01-12T10:58:02.781Z,6.10
2018-01-12T11:00:37.318Z,6.00
2018-01-12T11:03:10.877Z,6.00
2018-01-12T11:05:45.061Z,6.00
2018-01-12T11:08:19.694Z,6.10
2018-01-12T11:10:54.710Z,6.20
2018-01-12T11:13:29.416Z,6.20
2018-01-12T11:16:04.200Z,6.20
2018-01-12T11:18:38.252Z,6.20
2018-01-12T11:21:12.569Z,6.30
2018-01-12T11:23:48.333Z,6.30
2018-01-12T11:26:22.395Z,6.40
2018-01-12T11:28:56.132Z,6.40
2018-01-12T11:31:30.125Z,6.40
2018-01-12T11:34:03.815Z,6.40
2018-01-12T11:36:37.607Z,6.40
2018-01-12T11:39:11.318Z,6.40
2018-01-12T11:41:45.188Z,6.30
2018-01-12T11:44:19.716Z,6.30
2018-01-12T11:46:53.460Z,6.30
2018-01-12T11:49:27.272Z,6.30
2018-01-12T11:52:01.184Z,6.20
2018-01-12T11:54:34.925Z,6.20
2018-01-12T11:57:08.659Z,6.20
2018-01-12T11:59:44.377Z,6.30
2018-01-12T12:02:18.768Z,6.30
2018-01-12T12:04:57.143Z,6.30
2018-01-12T12:07:30.746Z,6.30
2018-01-12T12:10:07.813Z,6.40
2018-01-12T12:12:44.783Z,6.40
2018-01-12T12:15:18.516Z,6.40
2018-01-12T12:17:54.188Z,6.40
2018-01-12T12:23:14.374Z,6.40
2018-01-12T12:25:48.693Z,6.40
2018-01-12T12:28:22.879Z,6.30
2018-01-12T12:30:57.074Z,6.20
2018-01-12T12:33:33.257Z,6.20
2018-01-12T12:36:11.127Z,6.20
2018-01-12T12:38:45.680Z,6.10
2018-01-12T12:41:19.484Z,6.00
2018-01-12T12:43:53.276Z,6.00
2018-01-12T12:46:27.168Z,5.90
2018-01-12T12:49:01.412Z,5.80
2018-01-12T12:51:36.526Z,5.80
2018-01-12T12:54:10.360Z,5.80
2018-01-12T12:56:44.226Z,5.80
2018-01-12T13:01:54.774Z,5.80
2018-01-12T13:04:28.585Z,5.80
2018-01-12T13:07:03.876Z,5.70
2018-01-12T13:09:38.041Z,7.10
2018-01-12T13:14:50.377Z,5.80
2018-01-12T13:17:25.614Z,5.90
2018-01-12T13:20:00.105Z,5.90
2018-01-12T13:22:34.965Z,6.00
2018-01-12T13:25:08.839Z,6.00
2018-01-12T13:27:44.769Z,6.00
2018-01-12T13:30:20.310Z,6.00
2018-01-12T13:32:54.904Z,6.10
2018-01-12T13:35:29.523Z,6.00
2018-01-12T13:40:39.666Z,6.00
2018-01-12T13:43:13.363Z,6.00
2018-01-12T13:45:47.478Z,6.00
2018-01-12T13:48:21.517Z,6.00
2018-01-12T13:50:55.218Z,6.00
2018-01-12T13:53:28.927Z,6.00
2018-01-12T13:56:02.624Z,6.00
2018-01-12T13:58:38.434Z,6.00
2018-01-12T14:01:13.916Z,6.00
2018-01-12T14:03:49.580Z,6.00
2018-01-12T14:06:23.736Z,5.90
2018-01-12T14:08:57.307Z,5.90
2018-01-12T14:11:31.148Z,7.20
2018-01-12T14:14:04.841Z,5.90
2018-01-12T14:16:38.555Z,6.00
2018-01-12T14:19:13.021Z,6.00
2018-01-12T14:21:48.186Z,6.00
2018-01-12T14:24:22.180Z,6.00
2018-01-12T14:26:57.092Z,6.00
2018-01-12T14:29:30.865Z,6.00
2018-01-12T14:32:04.704Z,6.00
2018-01-12T14:34:38.472Z,5.90
2018-01-12T14:37:12.244Z,5.80
2018-01-12T14:39:46.548Z,5.70
2018-01-12T14:42:20.496Z,5.60
2018-01-12T14:47:30.053Z,5.50
2018-01-12T14:50:04.882Z,5.40
2018-01-12T14:52:38.665Z,5.40
2018-01-12T14:55:13.072Z,5.30
2018-01-12T14:57:47.682Z,5.30
2018-01-12T15:00:22.756Z,5.30
2018-01-12T15:02:56.678Z,5.30
2018-01-12T15:05:30.405Z,5.30
2018-01-12T15:08:05.090Z,5.20
2018-01-12T15:10:39.699Z,5.20
2018-01-12T15:13:14.837Z,5.20
2018-01-12T15:15:49.713Z,5.20
2018-01-12T15:18:24.444Z,5.10
2018-01-12T15:20:58.652Z,5.20
2018-01-12T15:23:32.367Z,5.10
2018-01-12T15:26:07.601Z,5.00
2018-01-12T15:28:41.935Z,5.10
2018-01-12T15:31:16.536Z,5.00
2018-01-12T15:33:50.392Z,5.00
2018-01-12T15:36:24.227Z,5.00
2018-01-12T15:38:58.705Z,4.90
2018-01-12T15:41:32.551Z,4.90
2018-01-12T15:44:06.989Z,4.90
2018-01-12T15:46:40.917Z,4.90
2018-01-12T15:49:16.120Z,4.90
2018-01-12T15:51:50.165Z,4.90
2018-01-12T15:54:24.530Z,5.00
2018-01-12T15:56:58.455Z,5.00
2018-01-12T15:59:32.186Z,5.00
2018-01-12T16:02:07.336Z,5.00
2018-01-12T16:04:42.103Z,5.10
2018-01-12T16:07:15.742Z,5.10
2018-01-12T16:09:49.517Z,5.20
2018-01-12T16:12:23.775Z,5.10
2018-01-12T16:14:58.706Z,5.10
2018-01-12T16:17:32.679Z,5.10
2018-01-12T16:20:07.356Z,5.10
2018-01-12T16:22:42.544Z,5.10
2018-01-12T16:25:17.749Z,5.10
2018-01-12T16:27:51.423Z,5.10
2018-01-12T16:30:25.157Z,5.20
2018-01-12T16:32:59.023Z,5.20
2018-01-12T16:35:32.798Z,5.10
2018-01-12T16:38:06.457Z,5.10
2018-01-12T16:40:40.294Z,5.10
2018-01-12T16:43:15.164Z,5.20
2018-01-12T16:45:49.575Z,5.10
2018-01-12T16:48:24.105Z,5.10
2018-01-12T16:50:57.780Z,5.00
2018-01-12T16:53:32.584Z,5.00
2018-01-12T16:56:07.348Z,5.00
2018-01-12T16:58:41.369Z,5.00
2018-01-12T17:01:15.057Z,5.00
2018-01-12T17:03:49.672Z,5.10
2018-01-12T17:06:23.900Z,5.10
2018-01-12T17:08:58.228Z,5.10
2018-01-12T17:11:32.784Z,5.10
2018-01-12T17:14:06.366Z,5.10
2018-01-12T17:16:40.881Z,5.10
2018-01-12T17:19:14.816Z,5.20
2018-01-12T17:21:48.692Z,5.20
2018-01-12T17:24:23.685Z,5.20
2018-01-12T17:26:58.239Z,5.20
2018-01-12T17:29:32.869Z,5.20
2018-01-12T17:32:06.659Z,5.10
2018-01-12T17:34:40.510Z,5.10
2018-01-12T17:37:14.148Z,5.10
2018-01-12T17:39:48.668Z,5.10
2018-01-12T17:42:22.456Z,5.10
2018-01-12T17:44:56.061Z,5.80
2018-01-12T17:47:29.869Z,5.10
2018-01-12T17:50:03.824Z,5.20
2018-01-12T17:52:38.361Z,5.20
2018-01-12T17:55:12.504Z,5.20
2018-01-12T17:57:48.153Z,5.20
2018-01-12T18:00:23.469Z,5.30
2018-01-12T18:02:57.918Z,5.30
2018-01-12T18:05:32.030Z,5.30
2018-01-12T18:08:06.630Z,5.40
2018-01-12T18:10:40.739Z,5.40
2018-01-12T18:13:15.765Z,5.40
2018-01-12T18:15:50.150Z,5.30
2018-01-12T18:18:25.811Z,5.30
2018-01-12T18:23:38.589Z,5.30
2018-01-12T18:26:12.795Z,5.30
2018-01-12T18:28:46.553Z,5.30
2018-01-12T18:31:20.429Z,5.30
2018-01-12T18:33:54.073Z,5.30
2018-01-12T18:36:28.140Z,5.30
2018-01-12T18:39:01.890Z,5.30
2018-01-12T18:41:35.600Z,5.30
2018-01-12T18:44:10.113Z,5.30
2018-01-12T18:46:44.661Z,5.30
2018-01-12T18:51:55.802Z,5.30
2018-01-12T18:57:06.852Z,5.30
2018-01-12T18:59:41.168Z,5.20
2018-01-12T19:02:15.674Z,5.20
2018-01-12T19:04:51.036Z,5.20
2018-01-12T19:07:25.561Z,5.10
2018-01-12T19:09:59.706Z,5.10
2018-01-12T19:12:33.760Z,5.10
2018-01-12T19:15:10.570Z,5.10
2018-01-12T19:17:44.369Z,5.00
2018-01-12T19:20:19.631Z,5.00
2018-01-12T19:22:53.761Z,5.00
2018-01-12T19:25:27.558Z,5.00
2018-01-12T19:28:01.459Z,5.00
2018-01-12T19:30:35.521Z,4.90
2018-01-12T19:33:09.845Z,4.90
2018-01-12T19:35:43.956Z,4.80
2018-01-12T19:38:18.319Z,4.80
2018-01-12T19:40:52.118Z,4.80
2018-01-12T19:43:25.941Z,4.70
2018-01-12T19:45:59.539Z,4.80
2018-01-12T19:48:33.340Z,4.80
2018-01-12T19:51:07.201Z,4.80
2018-01-12T19:53:40.961Z,4.80
2018-01-12T19:56:14.745Z,4.80
2018-01-12T19:58:49.745Z,4.80
2018-01-12T20:01:23.799Z,4.90
2018-01-12T20:03:58.318Z,4.80
2018-01-12T20:06:32.651Z,4.80
2018-01-12T20:09:07.087Z,4.80
2018-01-12T20:11:41.253Z,4.80
2018-01-12T20:14:15.756Z,4.70
2018-01-12T20:16:49.788Z,4.70
2018-01-12T20:19:25.272Z,4.70
2018-01-12T20:21:59.615Z,4.70
2018-01-12T20:24:33.160Z,4.70
2018-01-12T20:27:07.016Z,4.80
2018-01-12T20:29:40.793Z,4.80
2018-01-12T20:32:14.614Z,4.90
2018-01-12T20:34:49.231Z,4.90
2018-01-12T20:37:23.029Z,4.80
2018-01-12T20:39:56.836Z,4.80
2018-01-12T20:42:31.390Z,4.80
2018-01-12T20:45:05.468Z,4.90
2018-01-12T20:47:39.205Z,4.90
2018-01-12T20:50:12.940Z,4.90
2018-01-12T20:52:46.610Z,4.80
2018-01-12T20:55:20.288Z,4.90
2018-01-12T20:57:53.918Z,4.80
2018-01-12T21:00:27.713Z,4.80
2018-01-12T21:03:02.430Z,4.70
2018-01-12T21:05:38.474Z,4.80
2018-01-12T21:08:13.032Z,4.80
2018-01-12T21:10:47.954Z,4.80
2018-01-12T21:13:23.078Z,4.90
2018-01-12T21:15:57.881Z,4.90
2018-01-12T21:18:31.707Z,4.90
2018-01-12T21:21:05.374Z,4.90
2018-01-12T21:23:38.975Z,4.90
2018-01-12T21:26:12.821Z,4.90
2018-01-12T21:28:46.416Z,5.00
2018-01-12T21:31:21.284Z,5.00
2018-01-12T21:36:31.305Z,5.10
2018-01-12T21:41:40.775Z,5.00
2018-01-12T21:44:15.909Z,5.10
2018-01-12T21:46:50.000Z,5.10
2018-01-12T21:49:26.321Z,5.10
2018-01-12T21:52:01.453Z,5.10
2018-01-12T21:54:36.176Z,5.00
2018-01-12T21:57:10.916Z,5.00
2018-01-12T21:59:45.508Z,5.00
2018-01-12T22:02:21.060Z,5.00
2018-01-12T22:04:54.924Z,5.00
2018-01-12T22:07:28.837Z,5.00
2018-01-12T22:10:02.476Z,5.00
2018-01-12T22:12:37.100Z,5.10
2018-01-12T22:15:11.020Z,5.10
2018-01-12T22:17:45.570Z,5.10
2018-01-12T22:20:19.474Z,5.10
2018-01-12T22:22:53.873Z,5.10
2018-01-12T22:25:27.715Z,5.10
2018-01-12T22:28:02.300Z,5.10
2018-01-12T22:30:36.213Z,5.10
2018-01-12T22:33:10.053Z,5.10
2018-01-12T22:35:44.541Z,5.00
2018-01-12T22:38:18.502Z,5.10
2018-01-12T22:40:52.376Z,5.10
2018-01-12T22:43:26.061Z,5.10
2018-01-12T22:45:59.821Z,5.10
2018-01-12T22:48:34.622Z,5.10
2018-01-12T22:51:09.046Z,5.00
2018-01-12T22:53:43.640Z,5.00
2018-01-12T22:56:17.853Z,4.90
2018-01-12T22:58:51.567Z,4.90
2018-01-12T23:01:25.488Z,5.00
2018-01-12T23:04:00.274Z,5.10
2018-01-12T23:06:34.265Z,5.10
2018-01-12T23:09:08.699Z,5.00
2018-01-12T23:11:43.092Z,5.00
2018-01-12T23:14:17.060Z,5.00
2018-01-12T23:16:50.780Z,5.00
2018-01-12T23:19:24.561Z,5.00
2018-01-12T23:21:58.216Z,5.00
2018-01-12T23:27:07.700Z,5.00
2018-01-12T23:29:41.529Z,5.00
2018-01-12T23:32:15.241Z,5.00
2018-01-12T23:34:49.074Z,5.00
2018-01-12T23:37:22.673Z,4.90
2018-01-12T23:39:57.305Z,4.90
2018-01-12T23:42:31.074Z,4.80
2018-01-12T23:45:04.870Z,4.80
2018-01-12T23:47:38.497Z,4.70
2018-01-12T23:50:12.305Z,4.70
2018-01-12T23:52:46.127Z,4.80
2018-01-12T23:55:20.051Z,4.90
2018-01-12T23:57:54.245Z,4.90
